Grand Rapids, North Dakota
Current Conditions -  °F | °C
As of 5:55 AM on Thursday 27 Nov 2014 (Local Time) from KGWR Reporting Station
Clear Clear  
Wind Chill: -29°   Ceiling: Unl
Heat Index: -15°   Visibility: 10mi
Dew Point: -22°   Wind: 6mph
Humidity: 70%   Direction: 240°WSW
Pressure: 30.51"   Gusts: NA
Location:  46.37°N, 98.2854°W
Report Text: KGWR 271155Z AUTO 24005KT 10SM CLR M26/M30 A3051 RMK A01 P000
Loading
Personal Weather Stations






























Interactive Weather Map New forecast layout! Learn more

10-Day Weather Forecast

Advertisements
Track Severe Weather on mobile